Flight Track Log - Related Links

Times and Time Zones

All times are in EDT time to prevent confusion due to time zone crossing. See the UAL1519 flight status page for this flight to view local times or setup timezone preferences in your user account.

Time Position Orientation Groundspeed Altitude Reporting Facility
EDT Latitude Longitude Course Direction KTS MPH feet Rate Location/Type
Sat 10:00:34 AM 40.7333 -74.1167 217° Southwest 199 229 2,500  Level New York TRACON
Sat 10:01:34 AM 40.7833 -74.1333 346° North 215 247 5,800 2,550 Climbing New York TRACON
Sat 10:02:00 AM 40.3373 -74.1669 161° South  Level FlightAware Approximate
Sat 10:02:34 AM 40.7333 -74.1833 217° Southwest 252 290 7,600  Level New York TRACON
Sat 10:03:00 AM 40.2143 -74.1786 194° South  Level FlightAware Approximate
Sat 10:03:34 AM 40.6667 -74.2167 201° Southwest 265 305 10,700  Level New York TRACON
Sat 10:04:00 AM 40.1012 -74.2167 180° South  Level FlightAware Approximate
Sat 10:04:34 AM 40.6000 -74.2500 201° Southwest 281 323 13,000  Level New York TRACON
Sat 10:05:00 AM 39.9856 -74.2644 217° Southwest  Level FlightAware Approximate
Sat 10:05:34 AM 40.5000 -74.2500 180° South 341 392 15,800  Level New York TRACON
Sat 10:07:23 AM 40.3428 -74.2103 169° South 334 384 17,000 462 Climbing New York Center
Sat 10:08:23 AM 40.2611 -74.2225 187° South 329 379 17,100 1,235 Climbing New York Center
Sat 10:10:47 AM 40.0289 -74.2475 185° South 341 392 21,200 1,735 Climbing Washington Center
Sat 10:11:47 AM 39.9442 -74.3086 209° Southwest 341 392 23,000 2,100 Climbing Washington Center
Sat 10:12:47 AM 39.8658 -74.3858 217° Southwest 346 398 25,400 2,350 Climbing Washington Center
Sat 10:13:47 AM 39.7917 -74.4656 220° Southwest 356 410 27,700 2,050 Climbing Washington Center
Sat 10:14:47 AM 39.7175 -74.5639 226° Southwest 356 410 29,500 1,150 Climbing Washington Center
Sat 10:15:47 AM 39.6494 -74.6564 226° Southwest 351 404 30,000 200 Climbing Washington Center
Sat 10:16:47 AM 39.5772 -74.7489 225° Southwest 356 410 29,900  Descending Washington Center
Sat 10:17:47 AM 39.5092 -74.8411 226° Southwest 356 410 30,000 50 Climbing Washington Center
Sat 10:18:47 AM 39.4219 -74.9064 210° Southwest 356 410 30,000  Level Washington Center
Sat 10:19:47 AM 39.3283 -74.9583 203° Southwest 361 415 30,000  Level Washington Center
Sat 10:20:47 AM 39.2328 -75.0100 203° Southwest 367 422 30,000  Level Washington Center
Sat 10:21:47 AM 39.1350 -75.0672 204° Southwest 374 430 30,000 -50 Level Washington Center
Sat 10:22:47 AM 39.0394 -75.1214 204° Southwest 381 438 29,900  Descending Washington Center
Sat 10:23:47 AM 38.9417 -75.1753 203° Southwest 381 438 30,000 50 Climbing Washington Center
Sat 10:24:47 AM 38.8439 -75.2317 204° Southwest 381 438 30,000  Level Washington Center
Sat 10:25:47 AM 38.7419 -75.2828 201° Southwest 386 444 30,000  Level Washington Center
Sat 10:26:47 AM 38.6442 -75.3417 205° Southwest 386 444 30,000  Level Washington Center
Sat 10:27:47 AM 38.5442 -75.3925 202° Southwest 391 450 30,000 -50 Level Washington Center
Sat 10:28:47 AM 38.4442 -75.4458 203° Southwest 391 450 29,900 -50 Descending Washington Center
Sat 10:29:47 AM 38.3461 -75.5017 204° Southwest 397 457 29,900 50 Level Washington Center
Sat 10:30:47 AM 38.2564 -75.5494 203° Southwest 397 457 30,000 50 Climbing Washington Center
Sat 10:31:47 AM 38.1564 -75.6022 203° Southwest 392 451 30,000  Level Washington Center
Sat 10:32:47 AM 38.0564 -75.6578 204° Southwest 397 457 30,000 -50 Level Washington Center
Sat 10:33:47 AM 37.9519 -75.7208 205° Southwest 392 451 29,900 -50 Descending Washington Center
Sat 10:34:47 AM 37.8497 -75.7733 202° Southwest 387 445 29,900 50 Level Washington Center
Sat 10:35:47 AM 37.7536 -75.8256 203° Southwest 387 445 30,000  Climbing Washington Center
Sat 10:36:47 AM 37.6556 -75.8778 203° Southwest 387 445 29,900  Descending Washington Center
Sat 10:37:47 AM 37.5575 -75.9297 203° Southwest 387 445 30,000 50 Climbing Washington Center
Sat 10:38:47 AM 37.4614 -75.9817 203° Southwest 387 445 30,000 -50 Level Washington Center
Sat 10:39:47 AM 37.3611 -76.0333 202° Southwest 387 445 29,900 -50 Descending Washington Center
Sat 10:40:47 AM 37.2608 -76.0878 203° Southwest 387 445 29,900 50 Level Washington Center
Sat 10:41:47 AM 37.1625 -76.1392 203° Southwest 387 445 30,000 50 Climbing Washington Center
Sat 10:42:47 AM 37.0683 -76.1853 201° Southwest 394 453 30,000  Level Washington Center
Sat 10:43:47 AM 36.9658 -76.2392 203° Southwest 399 459 30,000  Level Washington Center
Sat 10:44:47 AM 36.8633 -76.2903 202° Southwest 399 459 30,000  Level Washington Center
Sat 10:45:47 AM 36.7628 -76.3439 203° Southwest 399 459 30,000  Level Washington Center
Sat 10:46:47 AM 36.6519 -76.4047 204° Southwest 399 459 30,000  Level Washington Center
Sat 10:47:47 AM 36.5514 -76.4581 203° Southwest 399 459 30,000  Level Washington Center
Sat 10:48:47 AM 36.4489 -76.5086 202° Southwest 399 459 30,000  Level Washington Center
Sat 10:49:47 AM 36.3483 -76.5592 202° Southwest 399 459 30,000  Level Washington Center
Sat 10:50:47 AM 36.2456 -76.6119 202° Southwest 399 459 30,000  Level Washington Center
Sat 10:51:47 AM 36.1428 -76.6619 201° Southwest 399 459 30,000  Level Washington Center
Sat 10:52:47 AM 36.0444 -76.7147 203° Southwest 399 459 30,000  Level Washington Center
Sat 10:53:47 AM 35.9394 -76.7669 202° Southwest 399 459 30,000  Level Washington Center
Sat 10:54:47 AM 35.8369 -76.8167 201° Southwest 399 459 30,000  Level Washington Center
Sat 10:55:47 AM 35.7361 -76.8689 203° Southwest 399 459 30,000  Level Washington Center
Sat 10:56:47 AM 35.6311 -76.9261 204° Southwest 399 459 30,000  Level Washington Center
Sat 10:57:47 AM 35.5431 -76.9681 201° Southwest 394 453 30,000  Level Washington Center
Sat 10:58:47 AM 35.4381 -77.0222 203° Southwest 400 460 30,000  Level Washington Center
Sat 10:59:47 AM 35.3353 -77.0714 201° Southwest 400 460 30,000  Level Washington Center
Sat 11:00:47 AM 35.2344 -77.1253 204° Southwest 400 460 30,000  Level Washington Center
Sat 11:01:47 AM 35.1317 -77.1742 201° Southwest 400 460 30,000  Level Washington Center
Sat 11:02:47 AM 35.0286 -77.2256 202° Southwest 400 460 30,000  Level Washington Center
Sat 11:03:47 AM 34.9214 -77.2792 202° Southwest 400 460 30,000 -50 Level Washington Center
Sat 11:04:47 AM 34.8122 -77.3350 203° Southwest 400 460 29,900  Descending Washington Center
Sat 11:05:47 AM 34.7072 -77.3858 202° Southwest 400 460 30,000 50 Climbing Washington Center
Sat 11:06:47 AM 34.6019 -77.4392 203° Southwest 400 460 30,000 -50 Level Washington Center
Sat 11:07:47 AM 34.4889 -77.4667 191° South 405 466 29,900  Descending Washington Center
Sat 11:08:47 AM 34.3883 -77.4869 189° South 410 472 30,000 22 Climbing Washington Center
Sat 11:12:16 AM 33.9803 -77.5561 188° South 432 497 30,000  Level Jacksonville Center
Sat 11:13:16 AM 33.8642 -77.5756 188° South 427 491 30,000  Level Jacksonville Center
Sat 11:14:16 AM 33.7483 -77.5975 189° South 415 478 30,000  Level Jacksonville Center
Sat 11:15:16 AM 33.6197 -77.6178 187° South 415 478 30,000  Level Jacksonville Center
Sat 11:16:16 AM 33.5039 -77.6397 189° South 415 478 30,000  Level Jacksonville Center
Sat 11:17:16 AM 33.3869 -77.6392 180° South 420 483 30,000 -50 Level Jacksonville Center
Sat 11:18:16 AM 33.2833 -77.6081 166° South 420 483 29,900 -50 Descending Jacksonville Center
Sat 11:19:16 AM 33.1544 -77.5661 165° South 436 502 29,900 500 Level Jacksonville Center
Sat 11:20:16 AM 33.0358 -77.5283 165° South 436 502 30,900 550 Climbing Jacksonville Center
Sat 11:21:16 AM 32.9383 -77.4922 163° South 436 502 31,000  Climbing Jacksonville Center
Sat 11:22:16 AM 32.8264 -77.4619 167° South 425 489 30,900 -50 Descending Jacksonville Center
Sat 11:23:16 AM 32.6994 -77.4178 164° South 420 483 30,900  Level Jacksonville Center
Sat 11:24:16 AM 32.6019 -77.3867 165° South 420 483 30,900 50 Level Jacksonville Center
Sat 11:25:16 AM 32.4919 -77.3514 165° South 420 483 31,000 50 Climbing Jacksonville Center
Sat 11:26:16 AM 32.3775 -77.3142 165° South 420 483 31,000 800 Level Jacksonville Center
Sat 11:27:16 AM 32.2656 -77.2817 166° South 420 483 32,600 1,000 Climbing Jacksonville Center
Sat 11:28:16 AM 32.1514 -77.2469 166° South 420 483 33,000 200 Climbing Jacksonville Center
Sat 11:29:16 AM 32.0411 -77.2072 163° South 420 483 33,000 -50 Level Jacksonville Center
Sat 11:30:16 AM 31.9289 -77.1725 165° South 420 483 32,900  Descending Jacksonville Center
Sat 11:31:16 AM 31.8147 -77.1406 167° South 420 483 33,000 50 Climbing Jacksonville Center
Sat 11:32:16 AM 31.7019 -77.0961 161° South 420 483 33,000  Level Jacksonville Center
Sat 11:33:16 AM 31.6061 -77.0094 142° Southeast 430 495 33,000 -50 Level Jacksonville Center
Sat 11:34:16 AM 31.5064 -76.9306 146° Southeast 430 495 32,900  Descending Jacksonville Center
Sat 11:36:00 AM 31.3001 -76.9520 141° Southeast  Level FlightAware Approximate
Sat 11:37:40 AM 31.3500 -77.0000 140° Southeast 448 516 33,000  Level New York Oceanic (ODAPS)
Sat 11:43:00 AM 30.5810 -76.2622 141° Southeast 448 516 33,000  Level FlightAware Transoceanic
Sat 11:44:00 AM 30.4845 -76.1708 141° Southeast 448 516 33,000  Level FlightAware Transoceanic
Sat 11:45:00 AM 30.3881 -76.0796 141° Southeast 448 516 33,000  Level FlightAware Transoceanic
Sat 11:46:00 AM 30.2915 -75.9885 141° Southeast 448 516 33,000  Level FlightAware Transoceanic
Sat 11:47:00 AM 30.1949 -75.8977 141° Southeast 448 516 33,000  Level FlightAware Transoceanic
Sat 11:48:00 AM 30.0982 -75.8070 141° Southeast 448 516 33,000  Level FlightAware Transoceanic
Sat 11:49:00 AM 30.0015 -75.7165 141° Southeast 448 516 33,000  Level FlightAware Transoceanic
Sat 11:50:00 AM 29.9047 -75.6261 141° Southeast 448 516 33,000  Level FlightAware Transoceanic
Sat 11:51:00 AM 29.8078 -75.5360 141° Southeast 448 516 33,000  Level FlightAware Transoceanic
Sat 11:52:00 AM 29.7109 -75.4460 141° Southeast 448 516 33,000  Level FlightAware Transoceanic
Sat 11:53:00 AM 29.6139 -75.3562 141° Southeast 448 516 33,000  Level FlightAware Transoceanic
Sat 11:54:00 AM 29.5169 -75.2666 141° Southeast 448 516 33,000  Level FlightAware Transoceanic
Sat 11:55:00 AM 29.4198 -75.1771 141° Southeast 448 516 33,000  Level FlightAware Transoceanic
Sat 11:56:00 AM 29.3226 -75.0878 141° Southeast 448 516 33,000  Level FlightAware Transoceanic
Sat 11:57:00 AM 29.2254 -74.9987 141° Southeast 448 516 33,000  Level FlightAware Transoceanic
Sat 11:58:00 AM 29.1281 -74.9098 141° Southeast 448 516 33,000  Level FlightAware Transoceanic
Sat 11:59:00 AM 29.0308 -74.8210 141° Southeast 448 516 33,000  Level FlightAware Transoceanic
Sat 12:00:00 PM 28.9334 -74.7324 142° Southeast 448 516 33,000  Level FlightAware Transoceanic
Sat 12:01:00 PM 28.8359 -74.6439 142° Southeast 448 516 33,000  Level FlightAware Transoceanic
Sat 12:02:00 PM 28.7384 -74.5556 142° Southeast 448 516 33,000  Level FlightAware Transoceanic
Sat 12:03:00 PM 28.6408 -74.4675 142° Southeast 448 516 33,000  Level FlightAware Transoceanic
Sat 12:04:00 PM 28.5432 -74.3795 142° Southeast 448 516 33,000  Level FlightAware Transoceanic
Sat 12:05:00 PM 28.4455 -74.2918 142° Southeast 448 516 33,000  Level FlightAware Transoceanic
Sat 12:06:00 PM 28.3478 -74.2041 142° Southeast 448 516 33,000  Level FlightAware Transoceanic
Sat 12:07:00 PM 28.2500 -74.1167 149° Southeast 448 516 33,000  Level FlightAware Transoceanic
Sat 12:07:40 PM 28.2500 -74.1167 149° Southeast 450 518 33,000  Level New York Oceanic (ODAPS)
Sat 12:08:00 PM 28.1385 -74.0416 149° Southeast 448 516 33,000  Level FlightAware Transoceanic
Sat 12:09:00 PM 28.0269 -73.9667 149° Southeast 448 516 33,000  Level FlightAware Transoceanic
Sat 12:10:00 PM 27.9153 -73.8920 149° Southeast 448 516 33,000  Level FlightAware Transoceanic
Sat 12:11:00 PM 27.8036 -73.8174 149° Southeast 448 516 33,000  Level FlightAware Transoceanic
Sat 12:12:00 PM 27.6919 -73.7430 149° Southeast 448 516 33,000  Level FlightAware Transoceanic
Sat 12:13:00 PM 27.4945 -73.6118 150° Southeast 450 518 33,000  Level FlightAware Transoceanic
Sat 12:14:00 PM 27.3864 -73.5403 150° Southeast 450 518 33,000  Level FlightAware Transoceanic
Sat 12:15:00 PM 27.2783 -73.4689 150° Southeast 450 518 33,000  Level FlightAware Transoceanic
Sat 12:16:00 PM 27.1702 -73.3976 150° Southeast 450 518 33,000  Level FlightAware Transoceanic
Sat 12:17:00 PM 27.0620 -73.3265 150° Southeast 450 518 33,000  Level FlightAware Transoceanic
Sat 12:18:00 PM 26.9538 -73.2555 150° Southeast 450 518 33,000  Level FlightAware Transoceanic
Sat 12:19:00 PM 26.8455 -73.1846 150° Southeast 450 518 33,000  Level FlightAware Transoceanic
Sat 12:20:00 PM 26.7372 -73.1139 150° Southeast 450 518 33,000  Level FlightAware Transoceanic
Sat 12:21:00 PM 26.6289 -73.0433 150° Southeast 450 518 33,000  Level FlightAware Transoceanic
Sat 12:22:00 PM 26.5206 -72.9728 150° Southeast 450 518 33,000  Level FlightAware Transoceanic
Sat 12:23:00 PM 26.4122 -72.9025 150° Southeast 450 518 33,000  Level FlightAware Transoceanic
Sat 12:24:00 PM 26.3037 -72.8323 150° Southeast 450 518 33,000  Level FlightAware Transoceanic
Sat 12:25:00 PM 26.1953 -72.7623 150° Southeast 450 518 33,000  Level FlightAware Transoceanic
Sat 12:26:00 PM 26.0868 -72.6923 150° Southeast 450 518 33,000  Level FlightAware Transoceanic
Sat 12:27:00 PM 25.9783 -72.6225 150° Southeast 450 518 33,000  Level FlightAware Transoceanic
Sat 12:28:00 PM 25.8697 -72.5528 150° Southeast 450 518 33,000  Level FlightAware Transoceanic
Sat 12:29:00 PM 25.7611 -72.4833 150° Southeast 450 518 33,000  Level FlightAware Transoceanic
Sat 12:29:07 PM 25.8000 -72.5086 150° Southeast 445 512 33,000  Level Miami Center
Sat 12:30:00 PM 25.6525 -72.4139 150° Southeast 450 518 33,000  Level FlightAware Transoceanic
Sat 12:30:07 PM 25.6831 -72.4344 150° Southeast 464 534 33,000  Level Miami Center
Sat 12:31:00 PM 25.5438 -72.3446 150° Southeast 450 518 33,000  Level FlightAware Transoceanic
Sat 12:31:07 PM 25.5678 -72.3581 149° Southeast 470 541 33,000  Level Miami Center
Sat 12:32:00 PM 25.4351 -72.2754 150° Southeast 450 518 33,000  Level FlightAware Transoceanic
Sat 12:32:07 PM 25.4528 -72.2842 150° Southeast 482 555 33,000  Level Miami Center
Sat 12:33:00 PM 25.3264 -72.2064 150° Southeast 450 518 33,000  Level FlightAware Transoceanic
Sat 12:33:07 PM 25.3397 -72.2128 150° Southeast 475 547 33,000  Level Miami Center
Sat 12:34:00 PM 25.2176 -72.1375 150° Southeast 450 518 33,000  Level FlightAware Transoceanic
Sat 12:34:07 PM 25.2247 -72.1414 151° Southeast 475 547 33,000  Level Miami Center
Sat 12:35:07 PM 25.1097 -72.0678 150° Southeast 481 554 33,000  Level Miami Center
Sat 12:36:07 PM 24.9969 -72.0036 153° Southeast 475 547 33,000  Level Miami Center
Sat 12:37:07 PM 24.8767 -71.9694 166° South 444 511 33,000  Level Miami Center
Sat 12:38:07 PM 24.7717 -71.8867 144° Southeast 455 524 33,000  Level Miami Center
Sat 12:39:07 PM 24.6781 -71.7739 132° Southeast 471 542 33,000  Level Miami Center
Sat 12:40:07 PM 24.5789 -71.6819 140° Southeast 471 542 33,000  Level Miami Center
Sat 12:41:07 PM 24.4792 -71.5836 138° Southeast 477 549 33,000  Level Miami Center
Sat 12:42:07 PM 24.3797 -71.4853 138° Southeast 477 549 33,000  Level Miami Center
Sat 12:43:07 PM 24.2803 -71.3917 139° Southeast 482 555 33,000  Level Miami Center
Sat 12:44:07 PM 24.1783 -71.2892 137° Southeast 475 547 33,000  Level Miami Center
Sat 12:45:07 PM 24.0808 -71.1978 139° Southeast 470 541 33,000  Level Miami Center
Sat 12:46:07 PM 23.9808 -71.0933 136° Southeast 480 552 33,000  Level Miami Center
Sat 12:47:07 PM 23.8792 -70.9981 139° Southeast 485 558 33,000  Level Miami Center
Sat 12:48:07 PM 23.7769 -70.8986 138° Southeast 485 558 33,000  Level Miami Center
Sat 12:49:07 PM 23.6772 -70.8036 139° Southeast 478 550 33,000  Level Miami Center
Sat 12:50:07 PM 23.5747 -70.6975 136° Southeast 478 550 33,000  Level Miami Center
Sat 12:51:07 PM 23.4947 -70.6289 142° Southeast 483 556 33,000  Level Miami Center
Sat 12:52:07 PM 23.3858 -70.5192 137° Southeast 478 550 33,000  Level Miami Center
Sat 12:53:07 PM 23.2858 -70.4247 139° Southeast 478 550 33,000  Level Miami Center
Sat 12:54:07 PM 23.1858 -70.3328 140° Southeast 470 541 33,000  Level Miami Center
Sat 12:55:07 PM 23.0856 -70.2364 139° Southeast 477 549 33,000  Level Miami Center
Sat 12:56:07 PM 22.9872 -70.1378 137° Southeast 477 549 33,000  Level Miami Center
Sat 12:57:07 PM 22.8828 -70.0375 138° Southeast 477 549 33,000  Level Miami Center
Sat 12:58:07 PM 22.7869 -69.9503 140° Southeast 479 551 33,000  Level Miami Center
Sat 12:59:07 PM 22.6803 -69.8503 139° Southeast 480 552 33,000  Level Miami Center
Sat 01:00:07 PM 22.5842 -69.7567 138° Southeast 475 547 33,000  Level Miami Center
Sat 01:01:07 PM 22.4836 -69.6633 139° Southeast 475 547 33,000  Level Miami Center
Sat 01:02:07 PM 22.3811 -69.5658 139° Southeast 475 547 33,000  Level Miami Center
Sat 01:03:07 PM 22.2783 -69.4708 139° Southeast 475 547 33,000  Level Miami Center
Sat 01:04:07 PM 22.1758 -69.3758 139° Southeast 481 554 33,000  Level Miami Center
Sat 01:05:07 PM 22.0711 -69.2789 139° Southeast 481 554 33,000  Level Miami Center
Sat 01:06:07 PM 21.9661 -69.1822 140° Southeast 486 559 33,000  Level Miami Center
Sat 01:07:07 PM 21.8633 -69.0853 139° Southeast 492 566 33,000  Level Miami Center
Sat 01:08:07 PM 21.7603 -68.9889 139° Southeast 492 566 33,000  Level Miami Center
Sat 01:09:07 PM 21.6533 -68.8950 141° Southeast 492 566 33,000  Level Miami Center
Sat 01:10:07 PM 21.5483 -68.7964 139° Southeast 503 579 33,000  Level Miami Center
Sat 01:11:07 PM 21.4472 -68.7003 138° Southeast 498 573 33,000  Level Miami Center
Sat 01:12:07 PM 21.3403 -68.6067 141° Southeast 498 573 33,000  Level Miami Center
Sat 01:13:07 PM 21.2414 -68.5106 138° Southeast 498 573 33,000  Level Miami Center
Sat 01:14:07 PM 21.1322 -68.4175 142° Southeast 499 574 33,000  Level Miami Center
Sat 01:15:07 PM 21.0408 -68.3100 132° Southeast 499 574 33,000  Level Miami Center
Sat 01:16:07 PM 20.9494 -68.1983 131° Southeast 494 568 33,000  Level Miami Center
Sat 01:17:07 PM 20.8575 -68.0847 131° Southeast 500 575 33,000  Level Miami Center
Sat 01:18:07 PM 20.7681 -67.9731 131° Southeast 500 575 33,000  Level Miami Center
Sat 01:19:07 PM 20.6825 -67.8614 129° Southeast 505 581 33,000  Level Miami Center
Sat 01:20:07 PM 20.5925 -67.7481 130° Southeast 505 581 33,000  Level Miami Center
Sat 01:21:07 PM 20.4919 -67.6289 132° Southeast 505 581 33,000  Level Miami Center
Sat 01:22:05 PM 20.4333 -67.5167 119° Southeast 490 564 33,000  Level San Juan Center
Sat 01:23:05 PM 20.3333 -67.4167 137° Southeast 500 575 33,000  Level San Juan Center
Sat 01:24:05 PM 20.2500 -67.3000 127° Southeast 500 575 33,000  Level San Juan Center
Sat 01:25:06 PM 20.1500 -67.1833 132° Southeast 490 564 33,000  Level San Juan Center
Sat 01:26:06 PM 20.0667 -67.0667 127° Southeast 490 564 33,000  Level San Juan Center
Sat 01:27:06 PM 19.9833 -66.9667 132° Southeast 490 564 33,000  Level San Juan Center
Sat 01:28:06 PM 19.8833 -66.8500 132° Southeast 490 564 33,000 -50 Level San Juan Center
Sat 01:29:07 PM 19.8000 -66.7500 132° Southeast 490 564 32,900  Descending San Juan Center
Sat 01:30:07 PM 19.7167 -66.6333 127° Southeast 480 552 33,000 50 Climbing San Juan Center
Sat 01:31:07 PM 19.6167 -66.5167 132° Southeast 490 564 33,000 -397 Level San Juan Center
Sat 01:32:08 PM 19.5333 -66.4167 131° Southeast 490 564 32,200 -1,736 Descending San Juan Center
Sat 01:33:08 PM 19.4500 -66.3000 127° Southeast 480 552 29,500 -2,600 Descending San Juan Center
Sat 01:34:08 PM 19.3500 -66.2000 137° Southeast 480 552 27,000 -2,500 Descending San Juan Center
Sat 01:35:08 PM 19.2667 -66.1000 131° Southeast 470 541 24,500 -2,430 Descending San Juan Center
Sat 01:36:09 PM 19.1833 -65.9833 127° Southeast 450 518 22,100 -2,281 Descending San Juan Center
Sat 01:37:09 PM 19.1000 -65.8833 131° Southeast 430 495 19,900 -2,200 Descending San Juan Center
Sat 01:38:09 PM 19.0167 -65.7833 131° Southeast 410 472 17,700 -2,231 Descending San Juan Center
Sat 01:39:10 PM 18.9500 -65.7000 130° Southeast 390 449 15,400 -1,934 Descending San Juan Center
Sat 01:40:10 PM 18.8833 -65.6167 130° Southeast 370 426 13,800 -1,350 Descending San Juan Center
Sat 01:41:10 PM 18.8167 -65.5333 130° Southeast 340 391 12,700 -1,240 Descending San Juan Center
Sat 01:42:11 PM 18.7500 -65.4667 137° Southeast 330 380 11,300 -1,240 Descending San Juan Center
Sat 01:43:11 PM 18.7000 -65.4000 128° Southeast 310 357 10,200 -1,000 Descending San Juan Center
Sat 01:44:11 PM 18.6500 -65.3500 137° Southeast 280 322 9,300 -1,190 Descending San Juan Center
Sat 01:45:12 PM 18.5833 -65.3000 145° Southeast 260 299 7,800 -1,537 Descending San Juan Center
Sat 01:46:12 PM 18.5167 -65.2667 155° Southeast 260 299 6,200 -1,450 Descending San Juan Center
Sat 01:47:12 PM 18.4500 -65.2333 155° Southeast 260 299 4,900 -992 Descending San Juan Center
Sat 01:48:13 PM 18.3833 -65.2000 155° Southeast 230 265 4,200 -1,091 Descending San Juan Center
Sat 01:49:13 PM 18.3500 -65.1667 136° Southeast 210 242 2,700 -800 Descending San Juan Center
Sat 01:50:13 PM 18.3167 -65.1167 125° Southeast 180 207 2,600 -100 Descending San Juan Center

Login

Don't have an account? Register now (free) for customized features, flight alerts, and more!